createdAt,value
2022-09-06T00:00:31.374Z,13.30
2022-09-06T00:03:01.494Z,13.30
2022-09-06T00:05:30.890Z,13.30
2022-09-06T00:08:00.634Z,13.30
2022-09-06T00:10:30.188Z,13.30
2022-09-06T00:13:02.387Z,13.20
2022-09-06T00:15:31.026Z,13.20
2022-09-06T00:18:01.384Z,13.20
2022-09-06T00:20:31.117Z,13.20
2022-09-06T00:23:00.581Z,13.10
2022-09-06T00:25:30.319Z,13.10
2022-09-06T00:28:00.239Z,13.10
2022-09-06T00:30:30.434Z,13.10
2022-09-06T00:33:00.252Z,13.10
2022-09-06T00:35:29.066Z,13.00
2022-09-06T00:37:58.909Z,13.00
2022-09-06T00:40:29.453Z,12.90
2022-09-06T00:42:58.593Z,12.90
2022-09-06T00:45:28.868Z,12.90
2022-09-06T00:47:58.809Z,12.90
2022-09-06T00:50:30.804Z,12.80
2022-09-06T00:52:59.501Z,12.80
2022-09-06T00:55:28.040Z,12.70
2022-09-06T00:57:57.343Z,12.70
2022-09-06T01:00:25.950Z,12.60
2022-09-06T01:02:55.634Z,12.60
2022-09-06T01:05:28.410Z,12.50
2022-09-06T01:08:06.866Z,12.50
2022-09-06T01:11:05.621Z,12.40
2022-09-06T01:13:45.227Z,12.40
2022-09-06T01:16:19.768Z,12.30
2022-09-06T01:19:06.202Z,12.30
2022-09-06T01:21:46.452Z,12.20
2022-09-06T01:24:48.067Z,12.10
2022-09-06T01:27:47.660Z,12.10
2022-09-06T01:30:20.112Z,12.10
2022-09-06T01:32:54.906Z,12.10
2022-09-06T01:35:31.220Z,12.00
2022-09-06T01:38:01.315Z,12.00
2022-09-06T01:40:29.932Z,12.00
2022-09-06T01:43:00.028Z,12.00
2022-09-06T01:45:50.927Z,11.90
2022-09-06T01:48:30.491Z,11.90
2022-09-06T01:51:12.148Z,11.80
2022-09-06T01:53:59.295Z,11.80
2022-09-06T01:56:36.594Z,11.70
2022-09-06T01:59:29.166Z,11.70
2022-09-06T02:02:04.786Z,11.60
2022-09-06T02:04:39.817Z,11.60
2022-09-06T02:07:16.141Z,11.60
2022-09-06T02:09:49.681Z,11.50
2022-09-06T02:12:21.910Z,11.50
2022-09-06T02:14:56.655Z,11.40
2022-09-06T02:17:30.162Z,11.40
2022-09-06T02:20:03.451Z,11.40
2022-09-06T02:22:35.923Z,11.30
2022-09-06T02:25:08.384Z,11.30
2022-09-06T02:27:37.801Z,11.20
2022-09-06T02:30:08.645Z,11.20
2022-09-06T02:32:41.658Z,11.20
2022-09-06T02:35:14.453Z,11.10
2022-09-06T02:37:43.265Z,11.10
2022-09-06T02:40:12.866Z,11.10
2022-09-06T02:42:41.936Z,11.00
2022-09-06T02:45:12.195Z,11.00
2022-09-06T02:47:40.738Z,11.00
2022-09-06T02:50:09.910Z,10.90
2022-09-06T02:52:38.288Z,10.90
2022-09-06T02:55:08.164Z,10.90
2022-09-06T02:57:36.955Z,10.90
2022-09-06T03:00:05.874Z,10.90
2022-09-06T03:02:35.697Z,10.80
2022-09-06T03:05:04.120Z,10.80
2022-09-06T03:07:32.503Z,10.80
2022-09-06T03:10:01.110Z,10.70
2022-09-06T03:12:29.471Z,10.70
2022-09-06T03:14:57.914Z,10.70
2022-09-06T03:17:26.505Z,10.60
2022-09-06T03:19:56.299Z,10.60
2022-09-06T03:22:24.662Z,10.60
2022-09-06T03:24:53.497Z,10.60
2022-09-06T03:27:21.931Z,10.60
2022-09-06T03:29:50.222Z,10.60
2022-09-06T03:32:18.840Z,10.50
2022-09-06T03:34:47.197Z,10.50
2022-09-06T03:37:16.996Z,10.50
2022-09-06T03:39:45.651Z,10.40
2022-09-06T03:42:13.951Z,10.50
2022-09-06T03:44:42.242Z,10.40
2022-09-06T03:47:10.832Z,10.40
2022-09-06T03:49:39.519Z,10.40
2022-09-06T03:52:08.211Z,10.40
2022-09-06T03:54:38.209Z,10.40
2022-09-06T03:57:07.078Z,10.40
2022-09-06T03:59:35.626Z,10.50
2022-09-06T04:02:04.358Z,10.50
2022-09-06T04:04:32.870Z,10.50
2022-09-06T04:07:01.453Z,10.50
2022-09-06T04:09:30.208Z,10.50
2022-09-06T04:11:59.946Z,10.50
2022-09-06T04:14:28.330Z,10.50
2022-09-06T04:16:57.040Z,10.50
2022-09-06T04:19:25.441Z,10.60
2022-09-06T04:21:53.791Z,10.60
2022-09-06T04:24:22.231Z,10.60
2022-09-06T04:26:50.718Z,10.60
2022-09-06T04:29:20.575Z,10.70
2022-09-06T04:31:49.165Z,10.80
2022-09-06T04:34:17.799Z,10.90
2022-09-06T04:36:48.438Z,11.00
2022-09-06T04:39:17.109Z,11.20
2022-09-06T04:41:45.399Z,11.30
2022-09-06T04:44:13.811Z,11.40
2022-09-06T04:46:44.109Z,11.60
2022-09-06T04:49:12.464Z,11.80
2022-09-06T04:51:41.326Z,12.10
2022-09-06T04:54:09.935Z,12.30
2022-09-06T04:56:38.254Z,12.60
2022-09-06T04:59:06.587Z,12.90
2022-09-06T05:01:35.229Z,13.10
2022-09-06T05:04:05.071Z,13.40
2022-09-06T05:06:33.398Z,13.70
2022-09-06T05:09:01.883Z,13.90
2022-09-06T05:11:30.272Z,14.10
2022-09-06T05:13:58.567Z,14.20
2022-09-06T05:16:27.028Z,14.30
2022-09-06T05:18:55.450Z,14.40
2022-09-06T05:21:25.148Z,14.40
2022-09-06T05:23:58.380Z,14.50
2022-09-06T05:26:27.078Z,14.70
2022-09-06T05:28:55.969Z,14.80
2022-09-06T05:31:29.146Z,14.80
2022-09-06T05:33:58.548Z,15.00
2022-09-06T05:36:29.183Z,15.20
2022-09-06T05:38:59.034Z,15.50
2022-09-06T05:41:28.058Z,15.70
2022-09-06T05:43:56.556Z,15.90
2022-09-06T05:46:25.188Z,16.20
2022-09-06T05:48:54.760Z,16.50
2022-09-06T05:51:23.419Z,16.70
2022-09-06T05:53:53.174Z,16.90
2022-09-06T05:56:22.582Z,17.00
2022-09-06T05:58:50.879Z,17.20
2022-09-06T06:01:20.937Z,17.30
2022-09-06T06:03:54.055Z,17.30
2022-09-06T06:06:23.362Z,17.40
2022-09-06T06:08:53.546Z,17.40
2022-09-06T06:11:22.338Z,17.60
2022-09-06T06:13:50.941Z,17.80
2022-09-06T06:16:22.166Z,18.10
2022-09-06T06:18:52.523Z,18.30
2022-09-06T06:21:23.011Z,18.50
2022-09-06T06:23:54.335Z,18.70
2022-09-06T06:26:23.689Z,18.80
2022-09-06T06:28:53.421Z,19.00
2022-09-06T06:31:22.671Z,19.10
2022-09-06T06:33:51.794Z,19.10
2022-09-06T06:36:22.623Z,19.10
2022-09-06T06:38:55.248Z,19.10
2022-09-06T06:41:25.759Z,19.20
2022-09-06T06:43:54.395Z,19.40
2022-09-06T06:46:23.774Z,19.50
2022-09-06T06:48:54.838Z,19.70
2022-09-06T06:51:26.378Z,19.90
2022-09-06T06:53:56.951Z,20.00
2022-09-06T06:56:27.378Z,20.20
2022-09-06T06:58:58.761Z,20.30
2022-09-06T07:01:28.685Z,20.50
2022-09-06T07:03:58.155Z,20.70
2022-09-06T07:09:18.506Z,21.00
2022-09-06T07:11:48.863Z,21.20
2022-09-06T07:14:17.534Z,21.30
2022-09-06T07:16:46.743Z,21.40
2022-09-06T07:22:05.776Z,21.50
2022-09-06T07:24:36.173Z,21.70
2022-09-06T07:29:53.297Z,22.00
2022-09-06T07:32:21.797Z,22.20
2022-09-06T07:34:50.249Z,22.40
2022-09-06T07:37:19.577Z,22.70
2022-09-06T07:39:49.683Z,22.90
2022-09-06T07:42:18.201Z,23.00
2022-09-06T07:44:47.148Z,23.10
2022-09-06T07:53:15.141Z,23.10
2022-09-06T07:55:45.380Z,23.20
2022-09-06T07:58:13.990Z,23.40
2022-09-06T08:00:42.499Z,23.50
2022-09-06T08:03:11.048Z,23.50
2022-09-06T08:11:18.453Z,23.70
2022-09-06T08:13:49.823Z,23.80
2022-09-06T08:16:18.727Z,23.90
2022-09-06T08:18:50.990Z,24.00
2022-09-06T08:21:19.746Z,24.00
2022-09-06T08:23:49.717Z,24.00
2022-09-06T08:26:22.075Z,24.00
2022-09-06T08:28:55.070Z,23.90
2022-09-06T08:31:23.569Z,23.90
2022-09-06T08:33:53.526Z,23.90
2022-09-06T08:36:22.631Z,23.90
2022-09-06T08:38:51.029Z,23.90
2022-09-06T08:41:27.407Z,23.90
2022-09-06T08:46:56.093Z,24.00
2022-09-06T08:49:25.888Z,24.10
2022-09-06T08:52:18.537Z,24.10
2022-09-06T08:54:53.409Z,24.10
2022-09-06T08:57:40.112Z,24.20
2022-09-06T09:00:12.267Z,24.20
2022-09-06T09:02:46.467Z,24.30
2022-09-06T09:05:23.851Z,24.30
2022-09-06T09:08:05.133Z,24.30
2022-09-06T09:10:42.418Z,24.20
2022-09-06T09:13:25.345Z,24.20
2022-09-06T09:15:54.287Z,24.10
2022-09-06T09:18:26.940Z,23.90
2022-09-06T09:20:55.797Z,23.80
2022-09-06T09:23:24.591Z,23.60
2022-09-06T09:25:55.072Z,23.50
2022-09-06T09:28:26.030Z,23.40
2022-09-06T09:30:56.447Z,23.30
2022-09-06T09:33:28.593Z,23.20
2022-09-06T09:35:59.214Z,23.20
2022-09-06T09:38:30.125Z,23.30
2022-09-06T09:41:01.810Z,23.30
2022-09-06T09:43:32.623Z,23.40
2022-09-06T09:46:16.939Z,23.40
2022-09-06T09:49:01.786Z,23.30
2022-09-06T09:51:32.164Z,23.10
2022-09-06T09:54:02.285Z,23.00
2022-09-06T09:56:50.340Z,23.00
2022-09-06T09:59:31.421Z,23.10
2022-09-06T10:02:03.918Z,23.00
2022-09-06T10:07:13.235Z,22.90
2022-09-06T10:09:46.462Z,23.00
2022-09-06T10:12:28.437Z,22.90
2022-09-06T10:15:01.024Z,22.90
2022-09-06T10:17:35.436Z,22.90
2022-09-06T10:20:08.452Z,23.10
2022-09-06T10:22:44.874Z,23.10
2022-09-06T10:25:45.097Z,23.30
2022-09-06T10:28:28.460Z,23.30
2022-09-06T10:31:13.512Z,23.20
2022-09-06T10:33:56.209Z,23.20
2022-09-06T10:36:30.842Z,23.10
2022-09-06T10:39:04.113Z,23.10
2022-09-06T10:41:47.244Z,23.00
2022-09-06T10:44:30.764Z,23.00
2022-09-06T10:47:10.111Z,23.00
2022-09-06T10:49:39.937Z,22.80
2022-09-06T10:52:11.595Z,22.70
2022-09-06T10:54:46.944Z,22.60
2022-09-06T11:00:14.422Z,22.60
2022-09-06T11:05:46.418Z,22.60
2022-09-06T11:11:17.410Z,22.40
2022-09-06T11:13:46.162Z,22.30
2022-09-06T11:16:19.789Z,22.20
2022-09-06T11:18:54.762Z,22.20
2022-09-06T11:21:40.855Z,22.20
2022-09-06T11:24:13.873Z,22.10
2022-09-06T11:26:45.369Z,22.10
2022-09-06T11:29:20.961Z,22.00
2022-09-06T11:34:56.089Z,21.90
2022-09-06T11:37:28.440Z,22.00
2022-09-06T11:40:29.435Z,22.00
2022-09-06T11:43:18.035Z,22.00
2022-09-06T11:45:49.713Z,22.00
2022-09-06T11:49:02.359Z,21.90
2022-09-06T11:51:38.117Z,21.80
2022-09-06T11:54:31.118Z,21.70
2022-09-06T11:57:03.464Z,21.70
2022-09-06T11:59:40.301Z,21.70
2022-09-06T12:02:30.971Z,21.80
2022-09-06T12:05:26.027Z,21.90
2022-09-06T12:08:26.870Z,21.90
2022-09-06T12:11:31.653Z,21.90
2022-09-06T12:14:04.386Z,21.90
2022-09-06T12:17:11.501Z,21.90
2022-09-06T12:19:44.277Z,22.00
2022-09-06T12:22:54.389Z,22.00
2022-09-06T12:25:56.082Z,22.00
2022-09-06T12:28:34.783Z,22.00
2022-09-06T12:31:18.552Z,22.10
2022-09-06T12:33:48.201Z,22.10
2022-09-06T12:36:19.464Z,22.20
2022-09-06T12:39:01.669Z,22.20
2022-09-06T12:41:33.426Z,22.10
2022-09-06T12:44:05.079Z,22.00
2022-09-06T12:46:34.234Z,22.00
2022-09-06T12:49:08.006Z,21.90
2022-09-06T12:51:37.393Z,21.90
2022-09-06T12:54:16.291Z,21.90
2022-09-06T12:56:46.072Z,21.90
2022-09-06T12:59:17.193Z,21.90
2022-09-06T13:01:51.378Z,22.00
2022-09-06T13:04:32.252Z,21.90
2022-09-06T13:07:03.109Z,21.90
2022-09-06T13:09:32.392Z,21.80
2022-09-06T13:12:07.740Z,21.80
2022-09-06T13:14:36.722Z,21.80
2022-09-06T13:17:05.691Z,21.80
2022-09-06T13:19:36.533Z,21.80
2022-09-06T13:22:07.593Z,21.70
2022-09-06T13:24:47.850Z,21.70
2022-09-06T13:27:35.279Z,21.70
2022-09-06T13:30:05.764Z,21.60
2022-09-06T13:32:36.324Z,21.60
2022-09-06T13:35:05.962Z,21.50
2022-09-06T13:37:36.404Z,21.50
2022-09-06T13:40:53.823Z,21.40
2022-09-06T13:43:28.524Z,21.40
2022-09-06T13:46:07.771Z,21.30
2022-09-06T13:48:37.021Z,21.20
2022-09-06T13:51:07.938Z,21.20
2022-09-06T13:53:37.167Z,21.20
2022-09-06T13:56:08.793Z,21.10
2022-09-06T13:58:39.664Z,21.10
2022-09-06T14:01:09.954Z,21.10
2022-09-06T14:03:42.691Z,21.10
2022-09-06T14:06:12.542Z,21.10
2022-09-06T14:09:05.992Z,21.10
2022-09-06T14:11:29.661Z,21.00
2022-09-06T14:13:59.773Z,21.00
2022-09-06T14:16:28.520Z,21.00
2022-09-06T14:18:57.572Z,20.90
2022-09-06T14:21:26.292Z,20.90
2022-09-06T14:23:54.923Z,20.80
2022-09-06T14:26:24.247Z,20.80
2022-09-06T14:28:53.165Z,20.70
2022-09-06T14:31:26.311Z,20.60
2022-09-06T14:33:55.528Z,20.60
2022-09-06T14:36:25.930Z,20.50
2022-09-06T14:38:54.851Z,20.50
2022-09-06T14:41:23.423Z,20.50
2022-09-06T14:43:53.528Z,20.50
2022-09-06T14:46:25.104Z,20.50
2022-09-06T14:48:58.579Z,20.50
2022-09-06T14:51:28.157Z,20.40
2022-09-06T14:53:59.169Z,20.40
2022-09-06T14:56:28.114Z,20.40
2022-09-06T14:58:59.875Z,20.40
2022-09-06T15:01:37.130Z,20.40
2022-09-06T15:04:08.663Z,20.40
2022-09-06T15:06:40.360Z,20.30
2022-09-06T15:09:11.355Z,20.30
2022-09-06T15:11:42.678Z,20.30
2022-09-06T15:14:16.797Z,20.30
2022-09-06T15:16:48.984Z,20.20
2022-09-06T15:19:20.922Z,20.20
2022-09-06T15:21:49.822Z,20.20
2022-09-06T15:24:18.819Z,20.20
2022-09-06T15:26:47.331Z,20.20
2022-09-06T15:29:16.689Z,20.20
2022-09-06T15:31:50.436Z,20.10
2022-09-06T15:34:20.141Z,20.10
2022-09-06T15:36:49.313Z,20.00
2022-09-06T15:39:18.347Z,20.00
2022-09-06T15:41:47.249Z,19.90
2022-09-06T15:44:18.824Z,19.90
2022-09-06T15:46:51.152Z,19.90
2022-09-06T15:49:26.969Z,19.80
2022-09-06T15:51:57.373Z,19.80
2022-09-06T15:54:40.522Z,19.80
2022-09-06T15:57:09.106Z,19.80
2022-09-06T15:59:37.819Z,19.70
2022-09-06T16:02:08.170Z,19.70
2022-09-06T16:04:36.659Z,19.70
2022-09-06T16:07:05.693Z,19.60
2022-09-06T16:09:34.443Z,19.60
2022-09-06T16:12:03.095Z,19.60
2022-09-06T16:14:32.056Z,19.50
2022-09-06T16:17:00.578Z,19.50
2022-09-06T16:19:30.455Z,19.50
2022-09-06T16:21:59.578Z,19.50
2022-09-06T16:24:28.518Z,19.50
2022-09-06T16:26:57.329Z,19.50
2022-09-06T16:29:26.310Z,19.50
2022-09-06T16:31:59.686Z,19.40
2022-09-06T16:34:29.917Z,19.40
2022-09-06T16:36:58.315Z,19.40
2022-09-06T16:39:27.059Z,19.40
2022-09-06T16:41:55.895Z,19.40
2022-09-06T16:44:24.674Z,19.30
2022-09-06T16:46:53.729Z,19.30
2022-09-06T16:49:22.390Z,19.30
2022-09-06T16:51:52.390Z,19.20
2022-09-06T16:54:21.070Z,19.20
2022-09-06T16:56:49.765Z,19.10
2022-09-06T16:59:18.215Z,19.10
2022-09-06T17:01:48.919Z,19.00
2022-09-06T17:04:19.140Z,19.00
2022-09-06T17:06:47.650Z,18.90
2022-09-06T17:09:19.189Z,18.80
2022-09-06T17:11:49.962Z,18.70
2022-09-06T17:14:19.302Z,18.70
2022-09-06T17:17:05.037Z,18.60
2022-09-06T17:19:37.907Z,18.50
2022-09-06T17:22:06.698Z,18.40
2022-09-06T17:24:36.936Z,18.30
2022-09-06T17:27:06.361Z,18.20
2022-09-06T17:29:35.133Z,18.10
2022-09-06T17:32:09.951Z,18.00
2022-09-06T17:34:38.782Z,17.90
2022-09-06T17:37:07.915Z,17.80
2022-09-06T17:39:37.941Z,17.70
2022-09-06T17:42:07.353Z,17.60
2022-09-06T17:44:37.478Z,17.60
2022-09-06T17:47:14.434Z,17.50
2022-09-06T17:49:43.672Z,17.40
2022-09-06T17:52:12.414Z,17.40
2022-09-06T17:54:42.312Z,17.30
2022-09-06T17:57:11.012Z,17.20
2022-09-06T17:59:39.530Z,17.10
2022-09-06T18:02:08.445Z,17.00
2022-09-06T18:04:37.178Z,16.90
2022-09-06T18:07:05.682Z,16.80
2022-09-06T18:09:34.179Z,16.70
2022-09-06T18:12:04.456Z,16.60
2022-09-06T18:14:32.824Z,16.40
2022-09-06T18:17:01.248Z,16.40
2022-09-06T18:19:30.088Z,16.30
2022-09-06T18:21:58.529Z,16.20
2022-09-06T18:24:27.721Z,16.10
2022-09-06T18:26:56.606Z,16.00
2022-09-06T18:29:26.465Z,15.90
2022-09-06T18:31:55.195Z,15.80
2022-09-06T18:34:24.006Z,15.70
2022-09-06T18:36:52.428Z,15.70
2022-09-06T18:39:20.786Z,15.70
2022-09-06T18:42:01.281Z,15.60
2022-09-06T18:44:33.181Z,15.60
2022-09-06T18:47:03.187Z,15.60
2022-09-06T18:49:32.535Z,15.50
2022-09-06T18:52:01.585Z,15.50
2022-09-06T18:54:30.588Z,15.50
2022-09-06T18:56:59.302Z,15.50
2022-09-06T18:59:27.901Z,15.50
2022-09-06T19:01:58.119Z,15.50
2022-09-06T19:04:26.565Z,15.50
2022-09-06T19:06:54.903Z,15.40
2022-09-06T19:09:23.368Z,15.40
2022-09-06T19:11:53.096Z,15.40
2022-09-06T19:14:21.919Z,15.30
2022-09-06T19:16:53.836Z,15.30
2022-09-06T19:19:24.007Z,15.20
2022-09-06T19:21:52.511Z,15.20
2022-09-06T19:24:22.759Z,15.20
2022-09-06T19:26:52.739Z,15.10
2022-09-06T19:29:21.256Z,15.10
2022-09-06T19:31:49.866Z,15.10
2022-09-06T19:34:18.542Z,15.00
2022-09-06T19:36:50.033Z,15.00
2022-09-06T19:39:18.969Z,15.00
2022-09-06T19:41:56.895Z,15.00
2022-09-06T19:44:25.841Z,14.90
2022-09-06T19:46:54.598Z,14.90
2022-09-06T19:49:23.312Z,14.90
2022-09-06T19:51:53.159Z,14.80
2022-09-06T19:54:21.699Z,14.80
2022-09-06T19:56:49.988Z,14.80
2022-09-06T19:59:18.686Z,14.80
2022-09-06T20:01:47.733Z,14.80
2022-09-06T20:04:17.175Z,14.70
2022-09-06T20:06:46.071Z,14.70
2022-09-06T20:09:16.677Z,14.60
2022-09-06T20:11:46.406Z,14.60
2022-09-06T20:14:14.868Z,14.60
2022-09-06T20:16:43.633Z,14.50
2022-09-06T20:19:14.935Z,14.50
2022-09-06T20:21:44.143Z,14.50
2022-09-06T20:24:12.801Z,14.40
2022-09-06T20:26:42.933Z,14.40
2022-09-06T20:29:11.595Z,14.30
2022-09-06T20:31:40.148Z,14.30
2022-09-06T20:34:09.047Z,14.20
2022-09-06T20:36:38.484Z,14.20
2022-09-06T20:39:07.255Z,14.20
2022-09-06T20:41:35.837Z,14.20
2022-09-06T20:44:05.941Z,14.10
2022-09-06T20:46:36.096Z,14.10
2022-09-06T20:49:06.692Z,14.00
2022-09-06T20:51:38.663Z,14.00
2022-09-06T20:54:07.862Z,13.90
2022-09-06T20:56:39.007Z,13.90
2022-09-06T20:59:10.830Z,13.80
2022-09-06T21:01:42.161Z,13.80
2022-09-06T21:04:11.563Z,13.80
2022-09-06T21:06:40.750Z,13.70
2022-09-06T21:09:11.312Z,13.70
2022-09-06T21:11:40.395Z,13.60
2022-09-06T21:14:10.909Z,13.60
2022-09-06T21:16:40.638Z,13.60
2022-09-06T21:19:11.304Z,13.50
2022-09-06T21:21:40.711Z,13.50
2022-09-06T21:24:10.159Z,13.50
2022-09-06T21:26:39.210Z,13.40
2022-09-06T21:29:09.001Z,13.40
2022-09-06T21:31:39.029Z,13.40
2022-09-06T21:34:15.697Z,13.50
2022-09-06T21:36:45.639Z,13.50
2022-09-06T21:39:14.906Z,13.50
2022-09-06T21:41:44.768Z,13.50
2022-09-06T21:44:14.811Z,13.50
2022-09-06T21:46:43.535Z,13.50
2022-09-06T21:49:13.544Z,13.50
2022-09-06T21:51:42.682Z,13.50
2022-09-06T21:54:11.476Z,13.50
2022-09-06T21:56:40.851Z,13.50
2022-09-06T21:59:10.913Z,13.50
2022-09-06T22:01:45.273Z,13.40
2022-09-06T22:04:14.701Z,13.40
2022-09-06T22:06:43.368Z,13.40
2022-09-06T22:09:13.421Z,13.30
2022-09-06T22:11:43.389Z,13.30
2022-09-06T22:14:14.219Z,13.20
2022-09-06T22:16:44.487Z,13.20
2022-09-06T22:19:13.809Z,13.10
2022-09-06T22:21:42.226Z,13.10
2022-09-06T22:24:13.260Z,13.10
2022-09-06T22:26:43.039Z,13.00
2022-09-06T22:29:13.539Z,13.00
2022-09-06T22:31:44.036Z,12.90
2022-09-06T22:34:12.951Z,12.90
2022-09-06T22:36:41.461Z,12.90
2022-09-06T22:39:09.831Z,12.80
2022-09-06T22:41:38.473Z,12.80
2022-09-06T22:44:07.358Z,12.70
2022-09-06T22:46:37.543Z,12.70
2022-09-06T22:49:08.234Z,12.70
2022-09-06T22:51:36.900Z,12.60
2022-09-06T22:54:05.926Z,12.60
2022-09-06T22:56:35.703Z,12.60
2022-09-06T22:59:04.719Z,12.50
2022-09-06T23:01:38.667Z,12.50
2022-09-06T23:04:10.043Z,12.50
2022-09-06T23:06:38.905Z,12.40
2022-09-06T23:09:07.572Z,12.40
2022-09-06T23:11:35.960Z,12.40
2022-09-06T23:14:05.002Z,12.30
2022-09-06T23:16:33.814Z,12.30
2022-09-06T23:19:02.276Z,12.30
2022-09-06T23:21:32.417Z,12.20
2022-09-06T23:24:01.008Z,12.20
2022-09-06T23:26:31.913Z,12.20
2022-09-06T23:29:00.585Z,12.20
2022-09-06T23:31:32.548Z,12.20
2022-09-06T23:34:02.827Z,12.20
2022-09-06T23:36:33.688Z,12.20
2022-09-06T23:39:02.828Z,12.10
2022-09-06T23:41:31.154Z,12.10
2022-09-06T23:43:59.946Z,12.10
2022-09-06T23:46:28.673Z,12.10
2022-09-06T23:48:57.126Z,12.10
2022-09-06T23:51:25.819Z,12.10
2022-09-06T23:53:55.549Z,12.00
2022-09-06T23:56:23.803Z,12.00
2022-09-06T23:58:52.439Z,12.00
